Time;durP1;ratioP1;P1;durP2;ratioP2;P2;SDS_P1;SDS_P2;PMS_P1;PMS_P2;Temp;Humidity;BMP_temperature;BMP_pressure;BME280_temperature;BME280_humidity;BME280_pressure;Samples;Min_cycle;Max_cycle;Signal;HPM_P1;HPM_P2
2022/11/24 00:01:52;;;;;;;10.18;3.72;;;7.60;99.90;;;;;;5053681;28;20041;-69
2022/11/24 00:04:18;;;;;;;8.00;3.40;;;7.60;99.90;;;;;;5053665;28;20040;-70
2022/11/24 00:06:44;;;;;;;4.43;2.92;;;7.50;99.90;;;;;;5053726;28;20032;-70
2022/11/24 00:09:10;;;;;;;5.95;2.92;;;7.60;99.90;;;;;;5053519;28;20041;-70
2022/11/24 00:11:36;;;;;;;6.88;3.15;;;7.40;99.90;;;;;;5053663;28;20467;-70
2022/11/24 00:14:03;;;;;;;9.85;3.08;;;7.30;99.90;;;;;;5053515;28;20087;-69
2022/11/24 00:16:31;;;;;;;6.07;2.47;;;7.30;99.90;;;;;;5035351;28;20448;-70
2022/11/24 00:18:59;;;;;;;6.82;3.33;;;7.70;99.90;;;;;;5053452;28;20094;-70
2022/11/24 00:21:26;;;;;;;8.93;2.75;;;7.20;99.90;;;;;;5053458;28;20072;-70
2022/11/24 00:23:52;;;;;;;7.70;3.08;;;7.20;99.90;;;;;;5053498;28;20082;-70
2022/11/24 00:26:29;;;;;;;10.65;2.38;;;7.20;99.90;;;;;;5053451;28;20444;-69
2022/11/24 00:28:58;;;;;;;8.95;3.08;;;7.20;99.90;;;;;;5035325;28;20404;-70
2022/11/24 00:31:26;;;;;;;6.22;2.92;;;7.20;99.90;;;;;;5035450;28;20045;-70
2022/11/24 00:33:55;;;;;;;4.80;2.35;;;7.20;99.90;;;;;;5053328;28;20483;-70
2022/11/24 00:36:23;;;;;;;6.78;3.15;;;7.10;99.90;;;;;;5053323;28;20464;-70
2022/11/24 00:39:00;;;;;;;3.78;2.40;;;7.20;99.90;;;;;;5053316;28;20068;-70
2022/11/24 00:41:27;;;;;;;4.75;2.10;;;7.10;99.90;;;;;;5053290;28;20466;-69
2022/11/24 00:43:53;;;;;;;4.75;2.72;;;7.10;99.90;;;;;;5035185;28;20136;-69
2022/11/24 00:46:19;;;;;;;13.82;3.47;;;7.10;99.90;;;;;;5054173;28;20446;-69
2022/11/24 00:48:45;;;;;;;9.95;3.35;;;7.10;99.90;;;;;;5057293;28;20039;-70
2022/11/24 00:51:13;;;;;;;3.35;2.17;;;7.10;99.90;;;;;;5023051;28;20041;-69
2022/11/24 00:53:39;;;;;;;6.53;2.60;;;7.10;99.90;;;;;;5057249;28;20499;-70
2022/11/24 00:56:05;;;;;;;7.60;2.25;;;7.10;99.90;;;;;;5056821;28;20043;-70
2022/11/24 00:58:32;;;;;;;6.57;2.58;;;7.00;99.90;;;;;;5056673;28;20052;-69
2022/11/24 01:01:06;;;;;;;5.78;2.53;;;7.00;99.90;;;;;;5057024;28;20492;-70
2022/11/24 01:03:32;;;;;;;5.82;2.53;;;7.00;99.90;;;;;;5057034;28;20048;-69
2022/11/24 01:06:06;;;;;;;6.18;2.45;;;7.00;99.90;;;;;;5038786;28;20083;-70
2022/11/24 01:08:33;;;;;;;6.20;2.88;;;6.90;99.90;;;;;;5056850;28;20067;-69
2022/11/24 01:11:16;;;;;;;6.00;3.30;;;6.90;99.90;;;;;;5039033;28;20049;-69
2022/11/24 01:13:44;;;;;;;11.15;2.10;;;6.90;99.90;;;;;;5056877;28;20072;-69
2022/11/24 01:16:15;;;;;;;6.20;2.30;;;6.90;99.90;;;;;;5056534;28;20150;-70
2022/11/24 01:18:41;;;;;;;6.55;2.35;;;7.00;99.90;;;;;;5056759;28;20175;-70
2022/11/24 01:21:06;;;;;;;8.82;3.30;;;6.90;99.90;;;;;;5056675;28;20091;-70
2022/11/24 01:23:32;;;;;;;4.05;2.13;;;6.90;99.90;;;;;;5056336;28;20041;-69
2022/11/24 01:25:58;;;;;;;8.27;2.42;;;6.90;99.90;;;;;;5038473;28;20040;-70
2022/11/24 01:28:23;;;;;;;8.73;2.65;;;6.90;99.90;;;;;;5056429;28;20033;-70
2022/11/24 01:30:57;;;;;;;8.35;2.90;;;6.90;99.90;;;;;;5038636;28;20128;-70
2022/11/24 01:33:22;;;;;;;10.65;2.30;;;6.90;99.90;;;;;;5056438;28;20170;-69
2022/11/24 01:35:48;;;;;;;6.07;2.13;;;6.90;99.90;;;;;;5056254;28;20512;-70
2022/11/24 01:38:14;;;;;;;3.42;1.92;;;6.90;99.90;;;;;;5056323;28;20044;-69
2022/11/24 01:40:39;;;;;;;4.45;2.00;;;6.80;99.90;;;;;;5055969;28;20043;-69
2022/11/24 01:43:18;;;;;;;5.10;2.20;;;6.90;99.90;;;;;;5038518;28;20045;-70
2022/11/24 01:45:46;;;;;;;3.08;1.70;;;6.80;99.90;;;;;;5056226;28;20429;-70
2022/11/24 01:48:19;;;;;;;4.78;2.00;;;6.80;99.90;;;;;;5056150;28;20033;-70
2022/11/24 01:50:52;;;;;;;10.65;2.13;;;6.80;99.90;;;;;;5038224;28;20044;-70
2022/11/24 01:53:20;;;;;;;11.05;2.10;;;6.80;99.90;;;;;;5056095;28;20033;-70
2022/11/24 01:55:45;;;;;;;2.60;1.67;;;7.10;99.90;;;;;;5056097;28;20071;-70
2022/11/24 01:58:14;;;;;;;12.25;2.42;;;6.90;99.90;;;;;;5055469;28;20044;-70
2022/11/24 02:00:43;;;;;;;9.88;2.03;;;6.90;99.90;;;;;;5056004;28;20053;-70
2022/11/24 02:03:11;;;;;;;6.03;1.92;;;6.90;99.90;;;;;;5056002;28;20028;-70
2022/11/24 02:05:49;;;;;;;5.28;1.75;;;7.10;99.90;;;;;;5055876;28;20040;-70
2022/11/24 02:08:25;;;;;;;4.50;2.03;;;7.00;99.90;;;;;;5055773;28;20041;-70
2022/11/24 02:10:51;;;;;;;7.55;1.70;;;7.00;99.90;;;;;;5055774;28;20048;-70
2022/11/24 02:13:17;;;;;;;3.78;1.73;;;7.00;99.90;;;;;;5055704;28;20033;-70
2022/11/24 02:15:43;;;;;;;9.68;2.30;;;6.90;99.90;;;;;;5055429;28;20091;-69
2022/11/24 02:18:09;;;;;;;8.00;2.10;;;7.10;99.90;;;;;;5055685;28;20053;-70
2022/11/24 02:20:35;;;;;;;5.70;1.80;;;6.90;99.90;;;;;;5037438;28;20048;-70
2022/11/24 02:23:15;;;;;;;10.65;2.15;;;7.30;99.90;;;;;;5037520;28;20079;-70
2022/11/24 02:25:54;;;;;;;6.68;1.52;;;6.90;99.90;;;;;;5055464;28;20041;-70
2022/11/24 02:28:22;;;;;;;7.00;2.03;;;6.90;99.90;;;;;;5037219;28;20048;-69
2022/11/24 02:30:49;;;;;;;7.28;1.50;;;6.80;99.90;;;;;;5055452;28;20526;-69
2022/11/24 02:33:15;;;;;;;3.53;1.20;;;6.80;99.90;;;;;;5037248;28;20044;-70
2022/11/24 02:35:41;;;;;;;5.93;1.45;;;6.90;99.90;;;;;;5037505;28;20047;-70
2022/11/24 02:38:11;;;;;;;7.45;2.20;;;6.80;99.90;;;;;;5037168;28;20132;-70
2022/11/24 02:40:38;;;;;;;5.53;1.55;;;6.80;99.90;;;;;;5055003;28;20556;-70
2022/11/24 02:43:09;;;;;;;5.75;1.50;;;7.10;99.90;;;;;;5055124;28;20079;-70
2022/11/24 02:45:35;;;;;;;;;;;6.70;99.90;;;;;;5037424;28;20401;-70
2022/11/24 02:48:01;;;;;;;9.70;2.47;;;6.70;99.90;;;;;;5055014;28;19921;-70
2022/11/24 02:50:26;;;;;;;5.35;2.00;;;6.70;99.90;;;;;;5055066;28;20059;-70
2022/11/24 02:52:52;;;;;;;5.93;1.38;;;6.70;99.90;;;;;;5054904;28;20519;-70
2022/11/24 02:55:19;;;;;;;5.63;1.48;;;6.70;99.90;;;;;;5037037;28;20036;-71
2022/11/24 02:57:45;;;;;;;9.68;2.00;;;6.80;99.90;;;;;;5054637;28;20053;-71
2022/11/24 03:00:11;;;;;;;12.25;2.28;;;7.40;99.90;;;;;;5054851;28;20041;-70
2022/11/24 03:02:37;;;;;;;1.95;1.30;;;6.80;99.90;;;;;;5036963;28;20044;-69
2022/11/24 03:05:03;;;;;;;3.10;1.90;;;6.80;99.90;;;;;;5054742;28;20045;-70
2022/11/24 03:07:28;;;;;;;5.15;1.40;;;6.80;99.90;;;;;;5054659;28;20041;-70
2022/11/24 03:09:54;;;;;;;8.80;2.05;;;6.80;99.90;;;;;;5053972;28;20438;-70
2022/11/24 03:12:20;;;;;;;3.85;1.45;;;6.80;99.90;;;;;;5054544;28;20476;-70
2022/11/24 03:14:45;;;;;;;11.80;1.85;;;6.80;99.90;;;;;;5036763;28;20033;-70
2022/11/24 03:17:11;;;;;;;6.85;1.95;;;7.30;99.90;;;;;;5054230;28;20041;-70
2022/11/24 03:19:37;;;;;;;7.28;2.13;;;6.70;99.90;;;;;;5054480;28;20033;-69
2022/11/24 03:22:03;;;;;;;7.32;1.23;;;6.70;99.90;;;;;;5054115;28;20077;-69
2022/11/24 03:24:28;;;;;;;5.75;1.75;;;6.80;99.90;;;;;;5054183;28;20127;-69
2022/11/24 03:26:54;;;;;;;11.95;2.00;;;7.60;99.90;;;;;;5054353;28;20047;-70
2022/11/24 03:29:21;;;;;;;6.93;2.08;;;6.80;99.90;;;;;;5054167;28;20037;-70
2022/11/24 03:31:46;;;;;;;9.77;2.05;;;6.80;99.90;;;;;;5054217;28;20036;-69
2022/11/24 03:34:12;;;;;;;7.13;2.08;;;7.00;99.90;;;;;;5036459;28;20120;-70
2022/11/24 03:36:38;;;;;;;7.97;1.67;;;6.90;99.90;;;;;;5036090;28;20044;-70
2022/11/24 03:39:04;;;;;;;4.30;1.85;;;6.90;99.90;;;;;;5053796;28;20047;-69
2022/11/24 03:41:29;;;;;;;4.75;1.98;;;7.40;99.90;;;;;;5054081;28;20074;-69
2022/11/24 03:43:55;;;;;;;5.57;1.77;;;7.30;99.90;;;;;;5054023;28;20068;-70
2022/11/24 03:46:21;;;;;;;4.60;1.40;;;7.00;99.90;;;;;;5036187;28;20052;-70
2022/11/24 03:48:46;;;;;;;9.38;1.77;;;7.00;99.90;;;;;;5035808;28;20044;-69
2022/11/24 03:51:12;;;;;;;4.03;1.50;;;7.00;99.90;;;;;;5053978;28;20495;-70
2022/11/24 03:53:38;;;;;;;5.25;1.33;;;7.00;99.90;;;;;;5019395;28;20123;-70
2022/11/24 03:56:04;;;;;;;2.78;1.30;;;7.00;99.90;;;;;;5053405;28;20037;-70
2022/11/24 03:58:29;;;;;;;9.80;1.63;;;7.00;99.90;;;;;;5035610;28;20060;-70
2022/11/24 04:00:55;;;;;;;2.30;1.08;;;7.00;99.90;;;;;;5053508;28;20127;-70
2022/11/24 04:03:22;;;;;;;5.22;1.60;;;7.00;99.90;;;;;;5053712;28;20033;-70
2022/11/24 04:05:48;;;;;;;3.55;1.65;;;6.90;99.90;;;;;;5035965;28;20041;-70
2022/11/24 04:08:14;;;;;;;4.55;1.48;;;6.90;99.90;;;;;;5053539;28;20124;-70
2022/11/24 04:10:40;;;;;;;6.43;1.90;;;6.80;99.90;;;;;;5035532;28;20060;-70
2022/11/24 04:13:17;;;;;;;3.03;1.25;;;6.80;99.90;;;;;;5053260;28;20033;-69
2022/11/24 04:15:43;;;;;;;5.85;1.52;;;6.80;99.90;;;;;;5053256;28;20124;-70
2022/11/24 04:18:10;;;;;;;14.55;2.05;;;7.00;99.90;;;;;;5053496;28;20395;-69
2022/11/24 04:20:36;;;;;;;5.90;1.67;;;7.00;99.90;;;;;;5053474;28;20052;-69
2022/11/24 04:23:03;;;;;;;6.82;1.02;;;6.80;99.90;;;;;;5035807;28;20479;-70
2022/11/24 04:25:29;;;;;;;7.63;1.60;;;6.80;99.90;;;;;;5053390;28;20033;-70
2022/11/24 04:27:55;;;;;;;6.97;2.97;;;6.80;99.90;;;;;;5053317;28;20487;-70
2022/11/24 04:30:22;;;;;;;8.73;1.95;;;6.70;99.90;;;;;;5053081;28;20119;-70
2022/11/24 04:32:48;;;;;;;6.95;1.23;;;6.80;99.90;;;;;;5053407;28;20395;-69
2022/11/24 04:35:17;;;;;;;9.23;1.88;;;6.70;99.90;;;;;;5035246;28;20116;-70
2022/11/24 04:37:43;;;;;;;4.28;1.33;;;6.70;99.90;;;;;;5053081;28;20072;-70
2022/11/24 04:40:10;;;;;;;8.40;1.60;;;6.70;99.90;;;;;;5053269;28;20083;-70
2022/11/24 04:42:36;;;;;;;5.90;0.95;;;6.70;99.90;;;;;;5053249;28;20037;-70
2022/11/24 04:45:01;;;;;;;3.08;0.90;;;6.70;99.90;;;;;;5018730;28;20366;-69
2022/11/24 04:47:27;;;;;;;6.40;1.30;;;7.20;99.90;;;;;;5053272;28;20163;-69
2022/11/24 04:49:53;;;;;;;4.68;1.42;;;6.70;99.90;;;;;;5053109;28;20130;-70
2022/11/24 04:52:21;;;;;;;5.38;1.40;;;6.60;99.90;;;;;;5053104;28;20403;-70
2022/11/24 04:54:47;;;;;;;7.95;1.52;;;6.90;99.90;;;;;;5053208;28;20044;-69
2022/11/24 04:57:24;;;;;;;2.13;0.82;;;6.70;99.90;;;;;;5052927;28;20392;-69
2022/11/24 04:59:51;;;;;;;2.95;0.77;;;6.60;99.90;;;;;;5052746;28;20110;-69
2022/11/24 05:02:17;;;;;;;4.53;1.10;;;6.50;99.90;;;;;;5053130;28;20052;-70
2022/11/24 05:04:43;;;;;;;3.35;1.50;;;6.60;99.90;;;;;;5052701;28;20045;-69
2022/11/24 05:07:13;;;;;;;4.47;1.00;;;6.50;99.90;;;;;;5052938;28;20048;-69
2022/11/24 05:10:33;;;;;;;5.88;0.95;;;6.50;99.90;;;;;;5052965;28;20083;-69
2022/11/24 05:12:29;;;;;;;5.50;0.93;;;6.50;99.90;;;;;;5052971;28;20124;-70
2022/11/24 05:15:02;;;;;;;2.25;1.10;;;6.50;99.90;;;;;;5034783;28;20045;-70
2022/11/24 05:17:30;;;;;;;7.63;1.55;;;6.50;99.90;;;;;;5035123;28;20048;-70
2022/11/24 05:19:56;;;;;;;2.80;1.05;;;6.50;99.90;;;;;;5053020;28;20526;-70
2022/11/24 05:22:22;;;;;;;3.20;0.90;;;6.70;99.90;;;;;;5052797;28;20053;-69
2022/11/24 05:24:47;;;;;;;3.20;1.15;;;6.40;99.90;;;;;;5052544;28;20403;-69
2022/11/24 05:27:13;;;;;;;3.83;1.02;;;6.40;99.90;;;;;;5052791;28;20049;-70
2022/11/24 05:29:39;;;;;;;6.03;1.55;;;6.40;99.90;;;;;;5035017;28;20045;-70
2022/11/24 05:32:04;;;;;;;7.00;1.50;;;6.40;99.90;;;;;;5035265;28;20434;-70
2022/11/24 05:34:32;;;;;;;1.38;0.95;;;7.00;99.90;;;;;;5055252;28;20140;-69
2022/11/24 05:37:01;;;;;;;5.45;1.83;;;6.40;99.90;;;;;;5054892;28;20052;-69
2022/11/24 05:39:30;;;;;;;9.70;1.30;;;6.40;99.90;;;;;;5056428;28;20045;-69
2022/11/24 05:41:56;;;;;;;6.47;1.05;;;6.30;99.90;;;;;;5038475;28;20174;-70
2022/11/24 05:44:21;;;;;;;6.60;0.90;;;6.30;99.90;;;;;;5056751;28;20513;-70
2022/11/24 05:46:47;;;;;;;3.85;1.33;;;6.30;99.90;;;;;;5056246;28;20049;-70
2022/11/24 05:49:13;;;;;;;3.70;1.23;;;6.30;99.90;;;;;;5038193;28;20069;-69
2022/11/24 05:51:38;;;;;;;3.03;0.68;;;6.70;99.90;;;;;;5038402;28;20037;-70
2022/11/24 05:54:04;;;;;;;1.15;0.65;;;6.90;99.90;;;;;;5038070;28;20491;-70
2022/11/24 05:56:30;;;;;;;19.77;1.67;;;6.30;99.90;;;;;;5055763;28;20395;-70
2022/11/24 05:58:55;;;;;;;3.45;0.77;;;6.20;99.90;;;;;;5055646;28;20122;-70
2022/11/24 06:01:21;;;;;;;2.13;0.85;;;6.20;99.90;;;;;;5055998;28;20435;-70
2022/11/24 06:03:47;;;;;;;6.65;1.10;;;6.20;99.90;;;;;;5055969;28;20423;-70
2022/11/24 06:06:12;;;;;;;2.00;0.80;;;6.20;99.90;;;;;;5055874;28;20091;-70
2022/11/24 06:08:38;;;;;;;6.57;1.15;;;6.20;99.90;;;;;;5055497;28;20049;-71
2022/11/24 06:11:16;;;;;;;4.03;1.38;;;6.40;99.90;;;;;;5037672;28;20106;-70
2022/11/24 06:13:44;;;;;;;4.32;1.40;;;6.20;99.90;;;;;;5055764;28;20132;-70
2022/11/24 06:16:10;;;;;;;3.17;0.93;;;6.20;99.90;;;;;;5038219;28;20033;-70
2022/11/24 06:18:36;;;;;;;3.65;0.95;;;6.10;99.90;;;;;;5055630;28;20119;-70
2022/11/24 06:21:02;;;;;;;3.22;1.30;;;6.20;99.90;;;;;;5037735;28;20491;-70
2022/11/24 06:23:28;;;;;;;3.70;1.13;;;6.20;99.90;;;;;;5055196;28;20083;-70
2022/11/24 06:25:59;;;;;;;12.45;1.58;;;6.20;99.90;;;;;;5055588;28;20075;-69
2022/11/24 06:28:26;;;;;;;10.93;1.63;;;6.30;99.90;;;;;;5055320;28;20045;-68
2022/11/24 06:30:51;;;;;;;3.53;1.77;;;6.50;99.90;;;;;;5055122;28;20037;-68
2022/11/24 06:33:17;;;;;;;2.95;0.93;;;6.20;99.90;;;;;;5055130;28;20044;-68
2022/11/24 06:35:43;;;;;;;6.53;1.55;;;6.20;99.90;;;;;;5054976;28;20037;-67
2022/11/24 06:38:09;;;;;;;5.72;1.58;;;6.10;99.90;;;;;;5037132;28;20487;-70
2022/11/24 06:40:35;;;;;;;2.58;1.08;;;6.20;99.90;;;;;;5054852;28;20110;-70
2022/11/24 06:43:00;;;;;;;4.18;0.70;;;6.20;99.90;;;;;;5055358;28;20045;-69
2022/11/24 06:45:26;;;;;;;6.28;2.08;;;6.20;99.90;;;;;;5055237;28;20052;-69
2022/11/24 06:47:55;;;;;;;12.02;2.13;;;6.20;99.90;;;;;;5055128;28;20391;-69
2022/11/24 06:50:22;;;;;;;3.47;1.45;;;6.20;99.90;;;;;;5055269;28;20048;-69
2022/11/24 06:52:47;;;;;;;9.32;1.20;;;6.20;99.90;;;;;;5037517;28;20041;-71
2022/11/24 06:55:13;;;;;;;5.15;1.30;;;6.60;99.90;;;;;;5037180;28;20037;-71
2022/11/24 06:57:39;;;;;;;11.43;1.77;;;6.20;99.90;;;;;;5037597;28;20044;-68
2022/11/24 07:00:09;;;;;;;6.57;1.40;;;6.20;99.90;;;;;;5037136;28;20032;-69
2022/11/24 07:02:35;;;;;;;2.60;0.98;;;6.20;99.90;;;;;;5054664;28;20044;-68
2022/11/24 07:05:01;;;;;;;7.88;1.10;;;6.10;99.90;;;;;;5054900;28;20073;-68
2022/11/24 07:07:27;;;;;;;7.47;1.55;;;6.10;99.90;;;;;;5054703;28;20033;-70
2022/11/24 07:09:52;;;;;;;3.80;1.20;;;6.20;99.90;;;;;;5054588;28;20044;-70
2022/11/24 07:12:18;;;;;;;5.00;1.30;;;6.20;99.90;;;;;;5036482;28;20151;-68
2022/11/24 07:14:43;;;;;;;8.88;1.63;;;6.30;99.90;;;;;;5054483;28;20037;-69
2022/11/24 07:17:09;;;;;;;10.05;1.65;;;6.20;99.90;;;;;;5036587;28;20044;-69
2022/11/24 07:19:35;;;;;;;1.80;0.90;;;6.20;99.90;;;;;;5054424;28;20040;-69
2022/11/24 07:22:00;;;;;;;8.45;1.67;;;6.20;99.90;;;;;;5054320;28;20041;-68
2022/11/24 07:24:26;;;;;;;6.38;1.50;;;6.20;99.90;;;;;;5054339;28;20396;-70
2022/11/24 07:26:52;;;;;;;5.13;1.70;;;6.20;99.90;;;;;;5036115;28;20174;-69
2022/11/24 07:29:17;;;;;;;8.48;1.38;;;6.20;99.90;;;;;;5036018;28;20040;-70
2022/11/24 07:31:44;;;;;;;4.45;1.45;;;6.20;99.90;;;;;;5054153;28;20037;-69
2022/11/24 07:34:10;;;;;;;7.55;1.80;;;6.20;99.90;;;;;;5053767;28;20045;-70
2022/11/24 07:36:36;;;;;;;2.72;0.93;;;6.30;99.90;;;;;;5053851;28;20044;-69
2022/11/24 07:39:04;;;;;;;7.85;2.53;;;6.20;99.90;;;;;;5053863;28;20458;-69
2022/11/24 07:41:30;;;;;;;6.70;1.52;;;6.20;99.90;;;;;;5053896;28;20556;-69
2022/11/24 07:43:55;;;;;;;5.88;1.80;;;6.20;99.90;;;;;;5053971;28;20041;-69
2022/11/24 07:46:21;;;;;;;2.47;1.13;;;6.20;99.90;;;;;;5053977;28;20040;-69
2022/11/24 07:48:47;;;;;;;4.45;1.55;;;6.20;99.90;;;;;;5036156;28;20040;-69
2022/11/24 07:51:13;;;;;;;8.15;2.10;;;6.60;99.90;;;;;;5035711;28;20062;-69
2022/11/24 07:53:39;;;;;;;4.20;1.60;;;6.40;99.90;;;;;;5053834;28;20396;-68
2022/11/24 07:56:05;;;;;;;7.22;1.85;;;6.20;99.90;;;;;;5035761;28;20392;-69
2022/11/24 07:58:32;;;;;;;7.03;1.90;;;6.20;99.90;;;;;;5032229;28;20060;-68
2022/11/24 08:00:58;;;;;;;6.53;1.88;;;6.20;99.90;;;;;;5033445;28;20037;-68
2022/11/24 08:03:24;;;;;;;8.93;1.83;;;6.20;99.90;;;;;;5033087;28;20045;-68
2022/11/24 08:05:57;;;;;;;7.97;1.27;;;6.20;99.90;;;;;;5032933;28;20088;-68
2022/11/24 08:08:23;;;;;;;2.78;1.27;;;6.20;99.90;;;;;;5032345;28;20047;-68
2022/11/24 08:10:50;;;;;;;7.90;1.88;;;6.20;99.90;;;;;;5032432;28;20042;-69
2022/11/24 08:13:16;;;;;;;5.63;1.73;;;6.30;99.90;;;;;;5014733;28;20049;-67
2022/11/24 08:15:41;;;;;;;3.72;1.17;;;6.40;99.90;;;;;;5032773;28;20476;-67
2022/11/24 08:18:08;;;;;;;7.32;1.77;;;6.20;99.90;;;;;;5032378;28;20091;-67
2022/11/24 08:20:33;;;;;;;7.05;1.75;;;6.30;99.90;;;;;;5015052;28;20373;-67
2022/11/24 08:22:59;;;;;;;7.82;1.63;;;6.30;99.90;;;;;;5032685;28;20079;-67
2022/11/24 08:25:31;;;;;;;6.93;1.50;;;6.30;99.90;;;;;;5032596;28;20117;-67
2022/11/24 08:28:00;;;;;;;;;;;6.40;99.90;;;;;;5032916;28;20057;-67
2022/11/24 08:30:26;;;;;;;6.97;1.42;;;6.40;99.90;;;;;;5032557;28;19916;-67
2022/11/24 08:32:52;;;;;;;4.40;1.85;;;6.50;99.90;;;;;;5032506;28;20050;-67
2022/11/24 08:35:18;;;;;;;5.68;1.48;;;6.50;99.90;;;;;;5032511;28;20045;-68
2022/11/24 08:37:44;;;;;;;1.63;1.05;;;6.50;99.90;;;;;;5014497;28;20117;-67
2022/11/24 08:40:10;;;;;;;13.13;1.77;;;6.50;99.90;;;;;;5032385;28;20099;-67
2022/11/24 08:42:36;;;;;;;6.72;1.92;;;6.60;99.90;;;;;;5032073;28;20063;-66
2022/11/24 08:45:01;;;;;;;5.05;2.15;;;6.70;99.90;;;;;;5014810;28;20492;-67
2022/11/24 08:47:27;;;;;;;12.98;2.20;;;6.70;99.90;;;;;;5032459;28;20052;-67
2022/11/24 08:49:53;;;;;;;4.97;2.17;;;6.90;99.90;;;;;;5032247;28;20045;-67
2022/11/24 08:52:18;;;;;;;4.05;1.70;;;6.90;99.90;;;;;;5031196;28;20381;-67
2022/11/24 08:54:44;;;;;;;6.63;1.52;;;7.20;99.90;;;;;;5032029;28;20496;-67
2022/11/24 08:57:12;;;;;;;15.32;2.33;;;7.10;99.90;;;;;;5032743;28;20060;-69
2022/11/24 08:59:38;;;;;;;5.25;2.05;;;7.20;99.90;;;;;;5052020;28;20049;-69
2022/11/24 09:02:04;;;;;;;6.57;2.33;;;7.20;99.90;;;;;;5051983;28;20051;-69
2022/11/24 09:04:30;;;;;;;5.35;2.05;;;7.30;99.90;;;;;;5051923;28;20079;-69
2022/11/24 09:06:57;;;;;;;9.77;2.60;;;7.40;99.90;;;;;;5034138;28;20044;-69
2022/11/24 09:09:22;;;;;;;5.25;1.83;;;7.50;99.90;;;;;;5055987;28;20091;-69
2022/11/24 09:11:48;;;;;;;6.75;1.88;;;7.50;99.90;;;;;;5021278;28;20040;-69
2022/11/24 09:14:14;;;;;;;4.55;1.58;;;7.50;99.90;;;;;;5056020;28;20060;-69
2022/11/24 09:16:40;;;;;;;6.82;1.88;;;7.60;99.90;;;;;;5055910;28;20036;-69
2022/11/24 09:19:06;;;;;;;6.53;2.70;;;7.60;99.90;;;;;;5055604;28;20399;-69
2022/11/24 09:21:36;;;;;;;3.22;1.27;;;7.60;99.90;;;;;;5055768;28;20045;-69
2022/11/24 09:24:03;;;;;;;5.60;1.75;;;7.70;99.90;;;;;;5055588;28;20048;-69
2022/11/24 09:26:31;;;;;;;8.43;2.05;;;7.70;99.90;;;;;;5055513;28;20041;-70
2022/11/24 09:28:58;;;;;;;6.00;1.58;;;7.70;99.90;;;;;;5055600;28;20041;-69
2022/11/24 09:31:27;;;;;;;4.30;2.10;;;7.80;99.90;;;;;;5055387;28;20415;-70
2022/11/24 09:33:53;;;;;;;6.85;1.88;;;7.80;99.90;;;;;;5055262;28;20048;-69
2022/11/24 09:36:19;;;;;;;5.20;1.38;;;7.90;99.90;;;;;;5055541;28;20029;-69
2022/11/24 09:38:45;;;;;;;6.22;1.55;;;7.90;99.90;;;;;;5055208;28;20041;-69
2022/11/24 09:41:14;;;;;;;5.65;1.50;;;7.90;99.90;;;;;;5055437;28;20095;-69
2022/11/24 09:44:17;;;;;;;8.15;1.30;;;8.00;99.90;;;;;;5037390;28;20045;-69
2022/11/24 09:47:01;;;;;;;11.75;1.40;;;8.00;99.90;;;;;;5054950;28;20037;-69
2022/11/24 09:49:55;;;;;;;2.90;1.10;;;8.10;99.90;;;;;;5037099;28;20049;-70
2022/11/24 09:52:49;;;;;;;7.53;1.40;;;8.10;99.90;;;;;;5037360;28;20041;-69
2022/11/24 09:55:33;;;;;;;3.10;1.50;;;8.10;99.90;;;;;;5054861;28;20036;-69
2022/11/24 09:58:36;;;;;;;5.05;1.38;;;8.10;99.90;;;;;;5054900;28;20045;-69
2022/11/24 10:01:11;;;;;;;3.28;1.02;;;8.20;99.90;;;;;;5054732;28;20181;-69
2022/11/24 10:03:43;;;;;;;5.70;1.48;;;8.20;99.90;;;;;;5055058;28;20072;-69
2022/11/24 10:06:20;;;;;;;3.55;1.08;;;8.30;99.90;;;;;;5055068;28;20041;-69
2022/11/24 10:08:49;;;;;;;2.00;1.27;;;8.20;99.90;;;;;;5054807;28;20048;-71
2022/11/24 10:11:24;;;;;;;2.30;1.30;;;8.30;99.90;;;;;;5036709;28;20052;-69
2022/11/24 10:14:10;;;;;;;3.33;0.82;;;9.10;99.90;;;;;;5036751;28;20052;-69
2022/11/24 10:16:51;;;;;;;3.20;1.15;;;8.30;99.90;;;;;;5054646;28;20040;-69
2022/11/24 10:19:30;;;;;;;7.95;1.00;;;8.50;99.90;;;;;;5054250;28;20044;-67
2022/11/24 10:22:22;;;;;;;2.20;0.90;;;8.40;99.90;;;;;;5054602;28;20472;-67
2022/11/24 10:25:17;;;;;;;2.00;1.05;;;8.50;99.90;;;;;;5054652;28;20041;-67
2022/11/24 10:28:03;;;;;;;2.78;0.73;;;8.50;99.90;;;;;;5034211;28;20060;-68
2022/11/24 10:30:29;;;;;;;1.02;0.80;;;8.60;99.90;;;;;;5054567;28;20044;-67
2022/11/24 10:32:57;;;;;;;2.17;0.90;;;8.60;99.90;;;;;;5054172;28;20492;-68
2022/11/24 10:35:34;;;;;;;1.40;0.60;;;8.60;99.90;;;;;;5036291;28;20080;-67
2022/11/24 10:38:05;;;;;;;3.85;1.35;;;8.70;99.90;;;;;;5054409;28;20488;-67
2022/11/24 10:40:41;;;;;;;1.60;1.00;;;8.90;99.90;;;;;;5036441;28;20059;-68
2022/11/24 10:43:11;;;;;;;1.35;0.80;;;8.70;99.90;;;;;;5054018;28;20037;-67
2022/11/24 10:45:39;;;;;;;1.88;0.93;;;8.80;99.90;;;;;;5036373;28;20067;-67
2022/11/24 10:48:19;;;;;;;4.25;0.82;;;8.80;99.90;;;;;;5054043;28;20067;-67
2022/11/24 10:50:45;;;;;;;2.60;1.33;;;8.90;99.90;;;;;;5054171;28;20069;-67
2022/11/24 10:53:19;;;;;;;2.55;1.17;;;8.90;99.90;;;;;;5054061;28;20071;-69
2022/11/24 10:55:56;;;;;;;2.13;1.00;;;9.00;99.90;;;;;;5054021;28;20095;-67
2022/11/24 10:58:28;;;;;;;3.78;1.30;;;9.00;99.90;;;;;;5053602;28;20064;-67
2022/11/24 11:00:57;;;;;;;2.45;1.17;;;8.90;99.90;;;;;;5035735;28;20089;-67
2022/11/24 11:03:44;;;;;;;3.78;1.67;;;9.00;99.90;;;;;;5035919;28;20060;-67
2022/11/24 11:06:13;;;;;;;2.08;1.20;;;9.00;99.90;;;;;;5053597;28;20041;-68
2022/11/24 11:08:39;;;;;;;4.68;1.30;;;9.20;99.90;;;;;;5053758;28;20155;-67
2022/11/24 11:11:18;;;;;;;3.10;1.40;;;9.00;99.90;;;;;;5053331;28;20084;-66
2022/11/24 11:13:56;;;;;;;1.98;0.90;;;9.10;99.90;;;;;;5053755;28;20036;-67
2022/11/24 11:16:26;;;;;;;1.38;1.23;;;9.20;99.90;;;;;;5053628;28;20033;-67
2022/11/24 11:18:52;;;;;;;4.38;1.30;;;9.60;99.90;;;;;;5035419;28;20084;-66
2022/11/24 11:21:36;;;;;;;4.20;1.42;;;9.20;99.90;;;;;;5053211;28;20098;-67
2022/11/24 11:24:11;;;;;;;6.20;2.03;;;9.20;99.90;;;;;;5053272;28;20438;-69
2022/11/24 11:26:38;;;;;;;3.80;1.40;;;9.30;99.90;;;;;;5035359;28;20064;-67
2022/11/24 11:29:07;;;;;;;3.58;1.60;;;9.30;99.90;;;;;;5053028;28;20124;-68
2022/11/24 11:31:37;;;;;;;3.92;1.50;;;9.40;99.90;;;;;;5034819;28;20048;-67
2022/11/24 11:34:14;;;;;;;2.60;1.23;;;9.50;99.90;;;;;;5053280;28;20051;-67
2022/11/24 11:36:43;;;;;;;4.15;1.27;;;;;;;;;;5053326;28;20037;-67
2022/11/24 11:39:33;;;;;;;2.42;1.38;;;10.40;99.90;;;;;;5053235;28;20052;-68
2022/11/24 11:42:14;;;;;;;4.28;1.52;;;;;;;;;;5053101;28;20116;-68
2022/11/24 11:44:44;;;;;;;4.45;1.50;;;;;;;;;;5053190;28;20530;-68
2022/11/24 11:47:22;;;;;;;2.35;1.33;;;;;;;;;;5052742;28;20084;-68
2022/11/24 11:49:49;;;;;;;4.88;1.63;;;;;;;;;;5052975;28;20037;-68
2022/11/24 11:52:15;;;;;;;2.72;1.40;;;;;;;;;;5052663;28;20471;-68
2022/11/24 11:55:27;;;;;;;6.68;1.52;;;12.30;99.90;;;;;;5053007;28;20042;-70
2022/11/24 11:58:13;;;;;;;3.75;1.30;;;12.40;99.90;;;;;;5052599;28;20111;-68
2022/11/24 12:00:44;;;;;;;3.97;1.25;;;;;;;;;;5052843;28;20132;-68
2022/11/24 12:03:10;;;;;;;2.28;1.05;;;;;;;;;;5052837;28;20045;-69
2022/11/24 12:05:36;;;;;;;2.90;0.82;;;;;;;;;;5034890;28;20542;-69
2022/11/24 12:08:07;;;;;;;2.88;1.20;;;;;;;;;;5052653;28;20036;-69
2022/11/24 12:10:38;;;;;;;1.55;1.08;;;;;;;;;;5052352;28;20199;-68
2022/11/24 12:13:13;;;;;;;2.90;1.08;;;;;;;;;;5052610;28;20041;-69
2022/11/24 12:15:51;;;;;;;2.47;1.50;;;;;;;;;;5052559;28;20503;-68
2022/11/24 12:18:26;;;;;;;7.70;1.00;;;;;;;;;;5052630;28;20037;-69
2022/11/24 12:21:10;;;;;;;2.72;1.35;;;;;;;;;;5034387;28;20055;-68
2022/11/24 12:23:36;;;;;;;2.15;1.10;;;;;;;;;;5034278;28;20076;-69
2022/11/24 12:26:18;;;;;;;6.22;2.05;;;;;;;;;;5052307;28;20044;-70
2022/11/24 12:28:43;;;;;;;;;;;;;;;;;;5052740;28;20120;-67
2022/11/24 12:31:30;;;;;;;1.75;1.02;;;;;;;;;;5052471;28;20391;-67
2022/11/24 12:34:02;;;;;;;3.63;1.38;;;;;;;;;;5034478;28;20440;-70
2022/11/24 12:36:28;;;;;;;3.65;1.40;;;;;;;;;;5052349;28;20074;-66
2022/11/24 12:39:01;;;;;;;4.43;1.52;;;;;;;;;;5052299;28;20557;-70
2022/11/24 12:41:38;;;;;;;4.60;1.67;;;;;;;;;;5052328;28;20045;-70
2022/11/24 12:44:09;;;;;;;3.58;1.63;;;;;;;;;;5038114;28;20051;-69
2022/11/24 12:46:51;;;;;;;4.65;1.50;;;;;;;;;;5038309;28;20051;-68
2022/11/24 12:49:35;;;;;;;9.13;1.73;;;;;;;;;;5038110;28;20060;-70
2022/11/24 12:52:28;;;;;;;6.97;1.92;;;10.70;99.90;;;;;;5038510;28;20041;-69
2022/11/24 12:54:55;;;;;;;1.77;1.17;;;10.70;99.90;;;;;;5056201;28;20075;-69
2022/11/24 12:57:33;;;;;;;2.40;1.15;;;10.70;99.90;;;;;;5056124;28;20079;-67
2022/11/24 13:00:39;;;;;;;7.15;1.58;;;10.50;99.90;;;;;;5038179;28;20128;-69
2022/11/24 13:03:31;;;;;;;6.30;1.50;;;10.50;99.90;;;;;;5013854;28;20050;-67
2022/11/24 13:06:33;;;;;;;2.63;1.10;;;10.60;99.90;;;;;;5055891;28;20037;-69
2022/11/24 13:09:08;;;;;;;5.75;1.25;;;10.40;99.90;;;;;;5048676;28;20067;-68
2022/11/24 13:11:39;;;;;;;3.42;1.13;;;10.40;99.90;;;;;;5055752;28;20041;-70
2022/11/24 13:14:31;;;;;;;1.95;0.80;;;10.50;99.90;;;;;;5038003;28;20041;-67
2022/11/24 13:17:16;;;;;;;3.45;1.15;;;10.40;99.90;;;;;;5055865;28;20031;-68
2022/11/24 13:19:42;;;;;;;2.80;1.05;;;10.40;99.90;;;;;;5055819;28;20048;-68